sensor_id;sensor_type;location;lat;lon;timestamp;P1;durP1;ratioP1;P2;durP2;ratioP2
3971;SDS011;2000;47.572;14.202;2022-10-16T00:00:57;5.83;;;3.83;;
3971;SDS011;2000;47.572;14.202;2022-10-16T00:03:24;12.23;;;3.23;;
3971;SDS011;2000;47.572;14.202;2022-10-16T00:05:58;6.23;;;2.87;;
3971;SDS011;2000;47.572;14.202;2022-10-16T00:08:26;4.00;;;2.83;;
3971;SDS011;2000;47.572;14.202;2022-10-16T00:10:58;2.83;;;2.63;;
3971;SDS011;2000;47.572;14.202;2022-10-16T00:13:25;3.03;;;2.77;;
3971;SDS011;2000;47.572;14.202;2022-10-16T00:15:54;7.10;;;2.47;;
3971;SDS011;2000;47.572;14.202;2022-10-16T00:18:22;1.80;;;1.70;;
3971;SDS011;2000;47.572;14.202;2022-10-16T00:20:50;3.33;;;1.83;;
3971;SDS011;2000;47.572;14.202;2022-10-16T00:23:17;1.53;;;1.43;;
3971;SDS011;2000;47.572;14.202;2022-10-16T00:25:43;2.47;;;2.20;;
3971;SDS011;2000;47.572;14.202;2022-10-16T00:28:10;4.37;;;2.00;;
3971;SDS011;2000;47.572;14.202;2022-10-16T00:30:37;4.10;;;2.53;;
3971;SDS011;2000;47.572;14.202;2022-10-16T00:33:04;2.50;;;2.27;;
3971;SDS011;2000;47.572;14.202;2022-10-16T00:35:31;3.60;;;1.83;;
3971;SDS011;2000;47.572;14.202;2022-10-16T00:37:58;2.20;;;1.80;;
3971;SDS011;2000;47.572;14.202;2022-10-16T00:40:24;2.53;;;1.77;;
3971;SDS011;2000;47.572;14.202;2022-10-16T00:42:51;1.53;;;1.43;;
3971;SDS011;2000;47.572;14.202;2022-10-16T00:45:18;1.73;;;1.57;;
3971;SDS011;2000;47.572;14.202;2022-10-16T00:47:45;2.30;;;2.10;;
3971;SDS011;2000;47.572;14.202;2022-10-16T00:50:29;2.97;;;1.90;;
3971;SDS011;2000;47.572;14.202;2022-10-16T00:52:57;10.47;;;1.73;;
3971;SDS011;2000;47.572;14.202;2022-10-16T00:55:25;4.63;;;2.00;;
3971;SDS011;2000;47.572;14.202;2022-10-16T00:57:52;1.83;;;1.63;;
3971;SDS011;2000;47.572;14.202;2022-10-16T01:00:20;1.97;;;1.70;;
3971;SDS011;2000;47.572;14.202;2022-10-16T01:02:57;2.43;;;2.23;;
3971;SDS011;2000;47.572;14.202;2022-10-16T01:05:33;4.77;;;2.30;;
3971;SDS011;2000;47.572;14.202;2022-10-16T01:10:52;4.33;;;2.00;;
3971;SDS011;2000;47.572;14.202;2022-10-16T01:13:24;4.90;;;1.90;;
3971;SDS011;2000;47.572;14.202;2022-10-16T01:16:16;7.27;;;2.00;;
3971;SDS011;2000;47.572;14.202;2022-10-16T01:18:47;2.40;;;1.93;;
3971;SDS011;2000;47.572;14.202;2022-10-16T01:21:22;17.37;;;3.03;;
3971;SDS011;2000;47.572;14.202;2022-10-16T01:29:30;1.57;;;1.47;;
3971;SDS011;2000;47.572;14.202;2022-10-16T01:35:22;1.90;;;1.63;;
3971;SDS011;2000;47.572;14.202;2022-10-16T01:40:32;2.73;;;2.43;;
3971;SDS011;2000;47.572;14.202;2022-10-16T01:43:08;4.03;;;2.10;;
3971;SDS011;2000;47.572;14.202;2022-10-16T01:45:39;1.80;;;1.70;;
3971;SDS011;2000;47.572;14.202;2022-10-16T01:48:07;2.43;;;2.03;;
3971;SDS011;2000;47.572;14.202;2022-10-16T01:50:37;9.50;;;2.40;;
3971;SDS011;2000;47.572;14.202;2022-10-16T01:53:06;1.90;;;1.80;;
3971;SDS011;2000;47.572;14.202;2022-10-16T01:55:36;3.83;;;2.50;;
3971;SDS011;2000;47.572;14.202;2022-10-16T01:58:05;3.27;;;1.40;;
3971;SDS011;2000;47.572;14.202;2022-10-16T02:00:33;8.83;;;2.40;;
3971;SDS011;2000;47.572;14.202;2022-10-16T02:03:01;2.20;;;1.83;;
3971;SDS011;2000;47.572;14.202;2022-10-16T02:05:29;4.63;;;2.87;;
3971;SDS011;2000;47.572;14.202;2022-10-16T02:08:24;5.53;;;2.07;;
3971;SDS011;2000;47.572;14.202;2022-10-16T02:10:54;7.63;;;2.23;;
3971;SDS011;2000;47.572;14.202;2022-10-16T02:16:08;2.47;;;2.27;;
3971;SDS011;2000;47.572;14.202;2022-10-16T02:18:35;3.00;;;2.10;;
3971;SDS011;2000;47.572;14.202;2022-10-16T02:21:05;14.37;;;2.40;;
3971;SDS011;2000;47.572;14.202;2022-10-16T02:27:05;4.07;;;2.87;;
3971;SDS011;2000;47.572;14.202;2022-10-16T02:29:19;7.67;;;3.77;;
3971;SDS011;2000;47.572;14.202;2022-10-16T02:31:50;9.20;;;3.63;;
3971;SDS011;2000;47.572;14.202;2022-10-16T02:34:20;14.60;;;4.50;;
3971;SDS011;2000;47.572;14.202;2022-10-16T02:36:48;8.40;;;5.00;;
3971;SDS011;2000;47.572;14.202;2022-10-16T02:39:15;8.60;;;4.60;;
3971;SDS011;2000;47.572;14.202;2022-10-16T02:41:42;14.63;;;6.20;;
3971;SDS011;2000;47.572;14.202;2022-10-16T02:44:09;21.97;;;7.00;;
3971;SDS011;2000;47.572;14.202;2022-10-16T02:46:36;19.67;;;6.93;;
3971;SDS011;2000;47.572;14.202;2022-10-16T02:49:03;26.10;;;8.90;;
3971;SDS011;2000;47.572;14.202;2022-10-16T02:51:29;19.27;;;7.60;;
3971;SDS011;2000;47.572;14.202;2022-10-16T02:53:56;17.90;;;7.63;;
3971;SDS011;2000;47.572;14.202;2022-10-16T02:56:23;21.27;;;6.80;;
3971;SDS011;2000;47.572;14.202;2022-10-16T02:58:50;21.40;;;6.90;;
3971;SDS011;2000;47.572;14.202;2022-10-16T03:01:17;19.80;;;7.13;;
3971;SDS011;2000;47.572;14.202;2022-10-16T03:03:43;19.80;;;6.60;;
3971;SDS011;2000;47.572;14.202;2022-10-16T03:06:10;22.67;;;7.90;;
3971;SDS011;2000;47.572;14.202;2022-10-16T03:08:37;18.67;;;7.50;;
3971;SDS011;2000;47.572;14.202;2022-10-16T03:11:03;20.67;;;6.60;;
3971;SDS011;2000;47.572;14.202;2022-10-16T03:13:31;22.90;;;6.70;;
3971;SDS011;2000;47.572;14.202;2022-10-16T03:15:57;20.03;;;6.20;;
3971;SDS011;2000;47.572;14.202;2022-10-16T03:18:24;21.10;;;6.30;;
3971;SDS011;2000;47.572;14.202;2022-10-16T03:20:51;20.93;;;5.40;;
3971;SDS011;2000;47.572;14.202;2022-10-16T03:23:18;17.23;;;6.40;;
3971;SDS011;2000;47.572;14.202;2022-10-16T03:25:45;20.77;;;6.80;;
3971;SDS011;2000;47.572;14.202;2022-10-16T03:28:13;13.57;;;6.67;;
3971;SDS011;2000;47.572;14.202;2022-10-16T03:30:40;15.63;;;6.47;;
3971;SDS011;2000;47.572;14.202;2022-10-16T03:33:07;27.93;;;6.67;;
3971;SDS011;2000;47.572;14.202;2022-10-16T03:35:33;9.80;;;4.13;;
3971;SDS011;2000;47.572;14.202;2022-10-16T03:38:00;8.57;;;5.50;;
3971;SDS011;2000;47.572;14.202;2022-10-16T03:40:27;3.97;;;2.90;;
3971;SDS011;2000;47.572;14.202;2022-10-16T03:42:54;5.60;;;3.97;;
3971;SDS011;2000;47.572;14.202;2022-10-16T03:45:23;11.60;;;3.03;;
3971;SDS011;2000;47.572;14.202;2022-10-16T03:47:50;4.23;;;3.33;;
3971;SDS011;2000;47.572;14.202;2022-10-16T03:50:17;3.80;;;2.60;;
3971;SDS011;2000;47.572;14.202;2022-10-16T03:52:44;4.93;;;2.63;;
3971;SDS011;2000;47.572;14.202;2022-10-16T03:55:10;7.23;;;4.50;;
3971;SDS011;2000;47.572;14.202;2022-10-16T03:57:37;5.87;;;3.73;;
3971;SDS011;2000;47.572;14.202;2022-10-16T04:00:04;10.43;;;4.60;;
3971;SDS011;2000;47.572;14.202;2022-10-16T04:02:31;6.50;;;4.63;;
3971;SDS011;2000;47.572;14.202;2022-10-16T04:04:58;8.03;;;5.00;;
3971;SDS011;2000;47.572;14.202;2022-10-16T04:07:25;10.60;;;5.27;;
3971;SDS011;2000;47.572;14.202;2022-10-16T04:09:52;5.83;;;4.20;;
3971;SDS011;2000;47.572;14.202;2022-10-16T04:12:19;5.43;;;3.30;;
3971;SDS011;2000;47.572;14.202;2022-10-16T04:14:46;4.00;;;3.20;;
3971;SDS011;2000;47.572;14.202;2022-10-16T04:17:13;3.20;;;2.87;;
3971;SDS011;2000;47.572;14.202;2022-10-16T04:19:39;6.60;;;2.73;;
3971;SDS011;2000;47.572;14.202;2022-10-16T04:22:06;5.63;;;3.30;;
3971;SDS011;2000;47.572;14.202;2022-10-16T04:24:33;4.00;;;2.53;;
3971;SDS011;2000;47.572;14.202;2022-10-16T04:26:59;3.93;;;3.40;;
3971;SDS011;2000;47.572;14.202;2022-10-16T04:29:26;5.20;;;2.80;;
3971;SDS011;2000;47.572;14.202;2022-10-16T04:31:52;5.93;;;4.27;;
3971;SDS011;2000;47.572;14.202;2022-10-16T04:34:19;5.17;;;3.17;;
3971;SDS011;2000;47.572;14.202;2022-10-16T04:36:49;7.60;;;4.73;;
3971;SDS011;2000;47.572;14.202;2022-10-16T04:39:15;4.57;;;3.40;;
3971;SDS011;2000;47.572;14.202;2022-10-16T04:41:43;7.07;;;3.03;;
3971;SDS011;2000;47.572;14.202;2022-10-16T04:44:09;4.90;;;3.63;;
3971;SDS011;2000;47.572;14.202;2022-10-16T04:46:36;4.27;;;2.73;;
3971;SDS011;2000;47.572;14.202;2022-10-16T04:49:03;7.00;;;4.43;;
3971;SDS011;2000;47.572;14.202;2022-10-16T04:51:29;5.70;;;3.63;;
3971;SDS011;2000;47.572;14.202;2022-10-16T04:53:56;6.27;;;4.03;;
3971;SDS011;2000;47.572;14.202;2022-10-16T04:56:23;4.63;;;3.57;;
3971;SDS011;2000;47.572;14.202;2022-10-16T04:58:50;6.27;;;4.10;;
3971;SDS011;2000;47.572;14.202;2022-10-16T05:01:17;4.77;;;3.10;;
3971;SDS011;2000;47.572;14.202;2022-10-16T05:03:43;3.50;;;2.57;;
3971;SDS011;2000;47.572;14.202;2022-10-16T05:06:10;9.17;;;2.97;;
3971;SDS011;2000;47.572;14.202;2022-10-16T05:08:37;4.23;;;2.97;;
3971;SDS011;2000;47.572;14.202;2022-10-16T05:11:03;6.27;;;3.53;;
3971;SDS011;2000;47.572;14.202;2022-10-16T05:13:30;4.70;;;3.33;;
3971;SDS011;2000;47.572;14.202;2022-10-16T05:15:57;4.87;;;3.47;;
3971;SDS011;2000;47.572;14.202;2022-10-16T05:18:23;7.20;;;4.70;;
3971;SDS011;2000;47.572;14.202;2022-10-16T05:20:50;6.30;;;4.17;;
3971;SDS011;2000;47.572;14.202;2022-10-16T05:23:16;5.77;;;3.57;;
3971;SDS011;2000;47.572;14.202;2022-10-16T05:25:43;5.53;;;3.33;;
3971;SDS011;2000;47.572;14.202;2022-10-16T05:28:18;4.80;;;3.90;;
3971;SDS011;2000;47.572;14.202;2022-10-16T05:30:45;6.80;;;4.33;;
3971;SDS011;2000;47.572;14.202;2022-10-16T05:33:11;8.03;;;4.80;;
3971;SDS011;2000;47.572;14.202;2022-10-16T05:35:38;5.93;;;4.30;;
3971;SDS011;2000;47.572;14.202;2022-10-16T05:38:05;14.23;;;5.00;;
3971;SDS011;2000;47.572;14.202;2022-10-16T05:40:31;7.13;;;3.90;;
3971;SDS011;2000;47.572;14.202;2022-10-16T05:42:58;7.83;;;4.50;;
3971;SDS011;2000;47.572;14.202;2022-10-16T05:45:24;5.40;;;4.30;;
3971;SDS011;2000;47.572;14.202;2022-10-16T05:47:51;4.77;;;3.57;;
3971;SDS011;2000;47.572;14.202;2022-10-16T05:50:18;4.67;;;2.30;;
3971;SDS011;2000;47.572;14.202;2022-10-16T05:52:44;2.20;;;1.50;;
3971;SDS011;2000;47.572;14.202;2022-10-16T05:55:11;4.37;;;1.70;;
3971;SDS011;2000;47.572;14.202;2022-10-16T05:57:37;3.53;;;1.87;;
3971;SDS011;2000;47.572;14.202;2022-10-16T06:00:05;3.33;;;2.23;;
3971;SDS011;2000;47.572;14.202;2022-10-16T06:02:32;3.43;;;2.23;;
3971;SDS011;2000;47.572;14.202;2022-10-16T06:04:58;3.80;;;2.13;;
3971;SDS011;2000;47.572;14.202;2022-10-16T06:07:25;3.73;;;2.37;;
3971;SDS011;2000;47.572;14.202;2022-10-16T06:09:52;2.77;;;2.40;;
3971;SDS011;2000;47.572;14.202;2022-10-16T06:12:19;4.30;;;1.70;;
3971;SDS011;2000;47.572;14.202;2022-10-16T06:14:46;4.63;;;1.67;;
3971;SDS011;2000;47.572;14.202;2022-10-16T06:17:13;2.80;;;1.20;;
3971;SDS011;2000;47.572;14.202;2022-10-16T06:19:40;1.97;;;1.77;;
3971;SDS011;2000;47.572;14.202;2022-10-16T06:22:07;2.20;;;1.47;;
3971;SDS011;2000;47.572;14.202;2022-10-16T06:24:33;1.83;;;1.63;;
3971;SDS011;2000;47.572;14.202;2022-10-16T06:27:00;5.73;;;2.30;;
3971;SDS011;2000;47.572;14.202;2022-10-16T06:29:26;3.40;;;2.03;;
3971;SDS011;2000;47.572;14.202;2022-10-16T06:31:53;1.60;;;1.20;;
3971;SDS011;2000;47.572;14.202;2022-10-16T06:34:20;1.53;;;1.27;;
3971;SDS011;2000;47.572;14.202;2022-10-16T06:36:46;0.77;;;0.77;;
3971;SDS011;2000;47.572;14.202;2022-10-16T06:39:13;1.00;;;0.90;;
3971;SDS011;2000;47.572;14.202;2022-10-16T06:41:39;2.43;;;1.10;;
3971;SDS011;2000;47.572;14.202;2022-10-16T06:44:06;0.87;;;0.87;;
3971;SDS011;2000;47.572;14.202;2022-10-16T06:46:36;1.70;;;1.30;;
3971;SDS011;2000;47.572;14.202;2022-10-16T06:49:03;1.17;;;1.07;;
3971;SDS011;2000;47.572;14.202;2022-10-16T06:51:29;1.60;;;1.30;;
3971;SDS011;2000;47.572;14.202;2022-10-16T06:53:58;4.30;;;0.70;;
3971;SDS011;2000;47.572;14.202;2022-10-16T06:56:30;1.33;;;1.23;;
3971;SDS011;2000;47.572;14.202;2022-10-16T06:58:59;1.57;;;1.47;;
3971;SDS011;2000;47.572;14.202;2022-10-16T07:01:26;1.97;;;1.03;;
3971;SDS011;2000;47.572;14.202;2022-10-16T07:03:53;4.93;;;2.30;;
3971;SDS011;2000;47.572;14.202;2022-10-16T07:06:21;5.43;;;2.43;;
3971;SDS011;2000;47.572;14.202;2022-10-16T07:08:49;4.33;;;3.53;;
3971;SDS011;2000;47.572;14.202;2022-10-16T07:11:17;3.27;;;2.97;;
3971;SDS011;2000;47.572;14.202;2022-10-16T07:13:45;5.57;;;3.30;;
3971;SDS011;2000;47.572;14.202;2022-10-16T07:16:20;4.70;;;3.53;;
3971;SDS011;2000;47.572;14.202;2022-10-16T07:18:48;5.67;;;2.50;;
3971;SDS011;2000;47.572;14.202;2022-10-16T07:21:17;8.07;;;3.23;;
3971;SDS011;2000;47.572;14.202;2022-10-16T07:23:49;4.83;;;3.93;;
3971;SDS011;2000;47.572;14.202;2022-10-16T07:26:17;3.87;;;3.10;;
3971;SDS011;2000;47.572;14.202;2022-10-16T07:28:44;4.90;;;3.80;;
3971;SDS011;2000;47.572;14.202;2022-10-16T07:31:12;7.07;;;4.10;;
3971;SDS011;2000;47.572;14.202;2022-10-16T07:33:40;6.93;;;4.87;;
3971;SDS011;2000;47.572;14.202;2022-10-16T07:36:11;9.30;;;4.17;;
3971;SDS011;2000;47.572;14.202;2022-10-16T07:38:41;7.73;;;4.80;;
3971;SDS011;2000;47.572;14.202;2022-10-16T07:41:11;9.50;;;6.10;;
3971;SDS011;2000;47.572;14.202;2022-10-16T07:43:39;9.17;;;6.00;;
3971;SDS011;2000;47.572;14.202;2022-10-16T07:46:06;10.73;;;7.53;;
3971;SDS011;2000;47.572;14.202;2022-10-16T07:48:33;11.80;;;8.47;;
3971;SDS011;2000;47.572;14.202;2022-10-16T07:51:02;11.50;;;7.13;;
3971;SDS011;2000;47.572;14.202;2022-10-16T07:53:31;10.03;;;8.47;;
3971;SDS011;2000;47.572;14.202;2022-10-16T07:55:59;16.13;;;7.77;;
3971;SDS011;2000;47.572;14.202;2022-10-16T07:58:27;12.50;;;7.20;;
3971;SDS011;2000;47.572;14.202;2022-10-16T08:00:55;10.90;;;7.07;;
3971;SDS011;2000;47.572;14.202;2022-10-16T08:03:22;9.10;;;6.67;;
3971;SDS011;2000;47.572;14.202;2022-10-16T08:05:50;8.07;;;6.53;;
3971;SDS011;2000;47.572;14.202;2022-10-16T08:08:17;11.90;;;7.50;;
3971;SDS011;2000;47.572;14.202;2022-10-16T08:10:44;14.23;;;10.77;;
3971;SDS011;2000;47.572;14.202;2022-10-16T08:13:11;25.47;;;11.90;;
3971;SDS011;2000;47.572;14.202;2022-10-16T08:15:42;16.10;;;10.60;;
3971;SDS011;2000;47.572;14.202;2022-10-16T08:18:09;14.93;;;9.40;;
3971;SDS011;2000;47.572;14.202;2022-10-16T08:20:37;15.70;;;11.40;;
3971;SDS011;2000;47.572;14.202;2022-10-16T08:23:04;26.17;;;13.43;;
3971;SDS011;2000;47.572;14.202;2022-10-16T08:25:31;29.70;;;14.10;;
3971;SDS011;2000;47.572;14.202;2022-10-16T08:28:02;19.30;;;13.63;;
3971;SDS011;2000;47.572;14.202;2022-10-16T08:30:29;18.87;;;13.80;;
3971;SDS011;2000;47.572;14.202;2022-10-16T08:32:56;17.03;;;13.43;;
3971;SDS011;2000;47.572;14.202;2022-10-16T08:35:24;15.80;;;11.83;;
3971;SDS011;2000;47.572;14.202;2022-10-16T08:37:51;15.93;;;10.37;;
3971;SDS011;2000;47.572;14.202;2022-10-16T08:40:30;15.77;;;8.97;;
3971;SDS011;2000;47.572;14.202;2022-10-16T08:45:55;10.63;;;8.70;;
3971;SDS011;2000;47.572;14.202;2022-10-16T08:51:08;23.10;;;9.13;;
3971;SDS011;2000;47.572;14.202;2022-10-16T08:53:41;15.43;;;9.13;;
3971;SDS011;2000;47.572;14.202;2022-10-16T08:56:13;16.50;;;8.60;;
3971;SDS011;2000;47.572;14.202;2022-10-16T08:58:39;11.07;;;7.67;;
3971;SDS011;2000;47.572;14.202;2022-10-16T09:01:11;10.43;;;7.80;;
3971;SDS011;2000;47.572;14.202;2022-10-16T09:03:47;9.00;;;7.83;;
3971;SDS011;2000;47.572;14.202;2022-10-16T09:06:39;11.80;;;8.00;;
3971;SDS011;2000;47.572;14.202;2022-10-16T09:12:11;9.67;;;7.30;;
3971;SDS011;2000;47.572;14.202;2022-10-16T09:23:12;9.50;;;6.73;;
3971;SDS011;2000;47.572;14.202;2022-10-16T09:25:42;8.53;;;7.40;;
3971;SDS011;2000;47.572;14.202;2022-10-16T09:28:11;9.70;;;6.90;;
3971;SDS011;2000;47.572;14.202;2022-10-16T09:30:37;8.40;;;6.47;;
3971;SDS011;2000;47.572;14.202;2022-10-16T09:33:06;9.33;;;5.90;;
3971;SDS011;2000;47.572;14.202;2022-10-16T09:35:38;9.40;;;6.03;;
3971;SDS011;2000;47.572;14.202;2022-10-16T09:38:07;10.03;;;7.63;;
3971;SDS011;2000;47.572;14.202;2022-10-16T09:40:35;9.30;;;6.93;;
3971;SDS011;2000;47.572;14.202;2022-10-16T09:45:39;9.23;;;6.63;;
3971;SDS011;2000;47.572;14.202;2022-10-16T09:48:12;11.30;;;7.27;;
3971;SDS011;2000;47.572;14.202;2022-10-16T09:50:39;13.60;;;6.83;;
3971;SDS011;2000;47.572;14.202;2022-10-16T09:53:13;26.50;;;12.33;;
3971;SDS011;2000;47.572;14.202;2022-10-16T09:55:51;17.77;;;8.17;;
3971;SDS011;2000;47.572;14.202;2022-10-16T09:58:22;20.90;;;9.50;;
3971;SDS011;2000;47.572;14.202;2022-10-16T10:00:53;17.77;;;7.30;;
3971;SDS011;2000;47.572;14.202;2022-10-16T10:03:31;15.17;;;10.43;;
3971;SDS011;2000;47.572;14.202;2022-10-16T10:06:03;22.43;;;10.53;;
3971;SDS011;2000;47.572;14.202;2022-10-16T10:08:33;20.87;;;9.60;;
3971;SDS011;2000;47.572;14.202;2022-10-16T10:11:00;16.17;;;8.13;;
3971;SDS011;2000;47.572;14.202;2022-10-16T10:13:27;13.83;;;8.23;;
3971;SDS011;2000;47.572;14.202;2022-10-16T10:15:53;21.90;;;14.47;;
3971;SDS011;2000;47.572;14.202;2022-10-16T10:18:21;12.03;;;7.63;;
3971;SDS011;2000;47.572;14.202;2022-10-16T10:20:59;14.80;;;8.53;;
3971;SDS011;2000;47.572;14.202;2022-10-16T10:23:27;13.47;;;9.47;;
3971;SDS011;2000;47.572;14.202;2022-10-16T10:26:37;10.80;;;8.20;;
3971;SDS011;2000;47.572;14.202;2022-10-16T10:29:30;10.37;;;6.90;;
3971;SDS011;2000;47.572;14.202;2022-10-16T10:31:43;8.83;;;6.70;;
3971;SDS011;2000;47.572;14.202;2022-10-16T10:37:36;10.70;;;6.53;;
3971;SDS011;2000;47.572;14.202;2022-10-16T10:40:12;13.60;;;6.97;;
3971;SDS011;2000;47.572;14.202;2022-10-16T10:46:09;12.60;;;5.90;;
3971;SDS011;2000;47.572;14.202;2022-10-16T10:49:23;15.40;;;7.00;;
3971;SDS011;2000;47.572;14.202;2022-10-16T10:51:53;19.37;;;6.67;;
3971;SDS011;2000;47.572;14.202;2022-10-16T10:54:49;24.10;;;6.83;;
3971;SDS011;2000;47.572;14.202;2022-10-16T10:57:25;16.43;;;7.20;;
3971;SDS011;2000;47.572;14.202;2022-10-16T11:05:17;8.73;;;5.43;;
3971;SDS011;2000;47.572;14.202;2022-10-16T11:07:58;9.60;;;5.90;;
3971;SDS011;2000;47.572;14.202;2022-10-16T11:10:33;7.80;;;4.97;;
3971;SDS011;2000;47.572;14.202;2022-10-16T11:13:38;16.53;;;5.77;;
3971;SDS011;2000;47.572;14.202;2022-10-16T11:18:52;30.03;;;6.30;;
3971;SDS011;2000;47.572;14.202;2022-10-16T11:21:23;17.30;;;7.23;;
3971;SDS011;2000;47.572;14.202;2022-10-16T11:24:13;18.63;;;6.37;;
3971;SDS011;2000;47.572;14.202;2022-10-16T11:26:42;15.43;;;6.13;;
3971;SDS011;2000;47.572;14.202;2022-10-16T11:29:20;12.93;;;6.30;;
3971;SDS011;2000;47.572;14.202;2022-10-16T11:31:51;13.60;;;5.00;;
3971;SDS011;2000;47.572;14.202;2022-10-16T11:34:41;14.30;;;5.57;;
3971;SDS011;2000;47.572;14.202;2022-10-16T11:37:17;9.37;;;5.90;;
3971;SDS011;2000;47.572;14.202;2022-10-16T11:39:47;15.27;;;6.90;;
3971;SDS011;2000;47.572;14.202;2022-10-16T11:42:19;16.17;;;6.20;;
3971;SDS011;2000;47.572;14.202;2022-10-16T11:47:42;11.10;;;5.57;;
3971;SDS011;2000;47.572;14.202;2022-10-16T11:50:26;18.10;;;6.10;;
3971;SDS011;2000;47.572;14.202;2022-10-16T11:55:50;12.80;;;5.23;;
3971;SDS011;2000;47.572;14.202;2022-10-16T12:03:35;18.23;;;5.43;;
3971;SDS011;2000;47.572;14.202;2022-10-16T12:06:21;17.40;;;6.70;;
3971;SDS011;2000;47.572;14.202;2022-10-16T12:08:50;11.97;;;5.83;;
3971;SDS011;2000;47.572;14.202;2022-10-16T12:11:32;29.33;;;8.00;;
3971;SDS011;2000;47.572;14.202;2022-10-16T12:19:23;21.90;;;5.73;;
3971;SDS011;2000;47.572;14.202;2022-10-16T12:21:51;8.03;;;4.37;;
3971;SDS011;2000;47.572;14.202;2022-10-16T12:24:41;9.70;;;4.80;;
3971;SDS011;2000;47.572;14.202;2022-10-16T12:30:14;8.20;;;3.93;;
3971;SDS011;2000;47.572;14.202;2022-10-16T12:32:55;6.07;;;3.73;;
3971;SDS011;2000;47.572;14.202;2022-10-16T12:35:31;3.93;;;3.53;;
3971;SDS011;2000;47.572;14.202;2022-10-16T12:38:07;7.83;;;5.30;;
3971;SDS011;2000;47.572;14.202;2022-10-16T12:40:40;8.23;;;4.57;;
3971;SDS011;2000;47.572;14.202;2022-10-16T12:46:00;5.67;;;3.83;;
3971;SDS011;2000;47.572;14.202;2022-10-16T12:48:29;8.37;;;4.20;;
3971;SDS011;2000;47.572;14.202;2022-10-16T12:54:13;10.93;;;3.83;;
3971;SDS011;2000;47.572;14.202;2022-10-16T13:16:13;8.63;;;3.23;;
3971;SDS011;2000;47.572;14.202;2022-10-16T13:24:25;12.53;;;4.50;;
3971;SDS011;2000;47.572;14.202;2022-10-16T13:27:02;6.83;;;5.00;;
3971;SDS011;2000;47.572;14.202;2022-10-16T13:29:52;13.50;;;4.37;;
3971;SDS011;2000;47.572;14.202;2022-10-16T13:32:21;16.10;;;4.00;;
3971;SDS011;2000;47.572;14.202;2022-10-16T13:34:48;9.50;;;4.50;;
3971;SDS011;2000;47.572;14.202;2022-10-16T13:37:19;11.20;;;3.63;;
3971;SDS011;2000;47.572;14.202;2022-10-16T13:39:47;5.53;;;3.50;;
3971;SDS011;2000;47.572;14.202;2022-10-16T13:42:27;7.03;;;3.27;;
3971;SDS011;2000;47.572;14.202;2022-10-16T13:44:55;8.00;;;3.60;;
3971;SDS011;2000;47.572;14.202;2022-10-16T13:47:26;7.30;;;3.50;;
3971;SDS011;2000;47.572;14.202;2022-10-16T13:50:02;6.63;;;3.80;;
3971;SDS011;2000;47.572;14.202;2022-10-16T13:52:33;8.93;;;3.27;;
3971;SDS011;2000;47.572;14.202;2022-10-16T13:54:59;11.50;;;4.27;;
3971;SDS011;2000;47.572;14.202;2022-10-16T13:57:27;12.83;;;4.43;;
3971;SDS011;2000;47.572;14.202;2022-10-16T13:59:54;18.97;;;4.07;;
3971;SDS011;2000;47.572;14.202;2022-10-16T14:05:01;3.60;;;3.20;;
3971;SDS011;2000;47.572;14.202;2022-10-16T14:07:30;6.23;;;4.80;;
3971;SDS011;2000;47.572;14.202;2022-10-16T14:10:18;5.20;;;3.77;;
3971;SDS011;2000;47.572;14.202;2022-10-16T14:13:00;8.27;;;3.30;;
3971;SDS011;2000;47.572;14.202;2022-10-16T14:15:29;4.37;;;3.97;;
3971;SDS011;2000;47.572;14.202;2022-10-16T14:17:57;13.37;;;3.50;;
3971;SDS011;2000;47.572;14.202;2022-10-16T14:20:26;5.03;;;2.60;;
3971;SDS011;2000;47.572;14.202;2022-10-16T14:22:58;5.33;;;3.43;;
3971;SDS011;2000;47.572;14.202;2022-10-16T14:25:45;8.33;;;3.30;;
3971;SDS011;2000;47.572;14.202;2022-10-16T14:28:21;12.30;;;3.60;;
3971;SDS011;2000;47.572;14.202;2022-10-16T14:30:53;4.70;;;2.90;;
3971;SDS011;2000;47.572;14.202;2022-10-16T14:38:48;4.00;;;3.60;;
3971;SDS011;2000;47.572;14.202;2022-10-16T14:41:16;8.10;;;2.90;;
3971;SDS011;2000;47.572;14.202;2022-10-16T14:43:49;6.40;;;3.17;;
3971;SDS011;2000;47.572;14.202;2022-10-16T14:46:21;4.03;;;3.43;;
3971;SDS011;2000;47.572;14.202;2022-10-16T14:48:54;10.50;;;3.30;;
3971;SDS011;2000;47.572;14.202;2022-10-16T14:51:29;17.50;;;3.80;;
3971;SDS011;2000;47.572;14.202;2022-10-16T14:53:56;6.93;;;2.93;;
3971;SDS011;2000;47.572;14.202;2022-10-16T14:56:27;7.53;;;3.10;;
3971;SDS011;2000;47.572;14.202;2022-10-16T14:58:58;4.17;;;3.60;;
3971;SDS011;2000;47.572;14.202;2022-10-16T15:01:25;5.20;;;3.40;;
3971;SDS011;2000;47.572;14.202;2022-10-16T15:03:52;3.27;;;2.40;;
3971;SDS011;2000;47.572;14.202;2022-10-16T15:06:21;5.60;;;3.77;;
3971;SDS011;2000;47.572;14.202;2022-10-16T15:08:48;3.67;;;3.30;;
3971;SDS011;2000;47.572;14.202;2022-10-16T15:11:16;3.03;;;2.40;;
3971;SDS011;2000;47.572;14.202;2022-10-16T15:13:44;6.40;;;3.70;;
3971;SDS011;2000;47.572;14.202;2022-10-16T15:16:12;3.23;;;2.93;;
3971;SDS011;2000;47.572;14.202;2022-10-16T15:18:39;5.00;;;3.50;;
3971;SDS011;2000;47.572;14.202;2022-10-16T15:21:06;6.37;;;3.57;;
3971;SDS011;2000;47.572;14.202;2022-10-16T15:23:33;3.80;;;3.40;;
3971;SDS011;2000;47.572;14.202;2022-10-16T15:26:00;18.57;;;4.70;;
3971;SDS011;2000;47.572;14.202;2022-10-16T15:28:27;4.90;;;3.93;;
3971;SDS011;2000;47.572;14.202;2022-10-16T15:30:54;5.00;;;3.27;;
3971;SDS011;2000;47.572;14.202;2022-10-16T15:33:23;10.97;;;7.03;;
3971;SDS011;2000;47.572;14.202;2022-10-16T15:35:53;6.53;;;5.80;;
3971;SDS011;2000;47.572;14.202;2022-10-16T15:38:22;5.03;;;4.37;;
3971;SDS011;2000;47.572;14.202;2022-10-16T15:40:49;4.67;;;3.97;;
3971;SDS011;2000;47.572;14.202;2022-10-16T15:43:16;9.30;;;3.27;;
3971;SDS011;2000;47.572;14.202;2022-10-16T15:45:44;6.37;;;3.40;;
3971;SDS011;2000;47.572;14.202;2022-10-16T15:48:12;3.97;;;3.57;;
3971;SDS011;2000;47.572;14.202;2022-10-16T15:50:40;5.90;;;4.37;;
3971;SDS011;2000;47.572;14.202;2022-10-16T15:53:09;8.40;;;4.67;;
3971;SDS011;2000;47.572;14.202;2022-10-16T15:55:36;27.63;;;8.00;;
3971;SDS011;2000;47.572;14.202;2022-10-16T15:58:04;9.83;;;3.80;;
3971;SDS011;2000;47.572;14.202;2022-10-16T16:00:31;7.13;;;5.00;;
3971;SDS011;2000;47.572;14.202;2022-10-16T16:02:58;12.17;;;9.27;;
3971;SDS011;2000;47.572;14.202;2022-10-16T16:05:25;18.33;;;12.10;;
3971;SDS011;2000;47.572;14.202;2022-10-16T16:07:53;7.17;;;5.90;;
3971;SDS011;2000;47.572;14.202;2022-10-16T16:10:20;6.93;;;5.13;;
3971;SDS011;2000;47.572;14.202;2022-10-16T16:12:47;5.83;;;4.47;;
3971;SDS011;2000;47.572;14.202;2022-10-16T16:15:19;5.60;;;3.93;;
3971;SDS011;2000;47.572;14.202;2022-10-16T16:17:46;5.13;;;4.60;;
3971;SDS011;2000;47.572;14.202;2022-10-16T16:20:13;6.33;;;3.87;;
3971;SDS011;2000;47.572;14.202;2022-10-16T16:22:41;5.53;;;3.97;;
3971;SDS011;2000;47.572;14.202;2022-10-16T16:25:08;10.23;;;3.57;;
3971;SDS011;2000;47.572;14.202;2022-10-16T16:27:35;4.30;;;3.07;;
3971;SDS011;2000;47.572;14.202;2022-10-16T16:30:05;3.83;;;2.87;;
3971;SDS011;2000;47.572;14.202;2022-10-16T16:32:34;6.03;;;3.43;;
3971;SDS011;2000;47.572;14.202;2022-10-16T16:35:01;7.67;;;3.33;;
3971;SDS011;2000;47.572;14.202;2022-10-16T16:37:28;5.93;;;2.90;;
3971;SDS011;2000;47.572;14.202;2022-10-16T16:39:56;12.53;;;3.30;;
3971;SDS011;2000;47.572;14.202;2022-10-16T16:42:25;9.13;;;3.43;;
3971;SDS011;2000;47.572;14.202;2022-10-16T16:44:53;6.00;;;3.07;;
3971;SDS011;2000;47.572;14.202;2022-10-16T16:47:20;5.70;;;3.13;;
3971;SDS011;2000;47.572;14.202;2022-10-16T16:49:46;6.17;;;3.70;;
3971;SDS011;2000;47.572;14.202;2022-10-16T16:52:13;3.50;;;2.93;;
3971;SDS011;2000;47.572;14.202;2022-10-16T16:54:41;9.20;;;3.00;;
3971;SDS011;2000;47.572;14.202;2022-10-16T16:57:07;16.27;;;3.70;;
3971;SDS011;2000;47.572;14.202;2022-10-16T16:59:34;6.13;;;3.90;;
3971;SDS011;2000;47.572;14.202;2022-10-16T17:02:02;5.63;;;3.53;;
3971;SDS011;2000;47.572;14.202;2022-10-16T17:04:29;8.77;;;3.43;;